Kezdőlap
METAR-TAF:

METAR-TAF

Repülőterek :

Santiago de Chile, Chile

földrajzi szélesség: 33-27-23S, földrajzi hosszúság: 070-32-48W, magasság: 646 m

Jelenlegi meteorológiai megfigyelések

A jelentés 27 perccel ezelõtt készült, 16:00 UTC
Déli szél 4 kt
Hőmérséklet 25°C
Páratartalom 32%
Légköri nyomás 1017 hPa
Látótávolság 10 km, vagy több
felhőtlen 1500 m magasságban, és nincs gomolyfelhõ

METAR: SCTB 151600Z 19004KT CAVOK 25/07 Q1017

Idő: 13:27 (16:27 UTC)


TAF: hiányzik

Meteorológiai megfigyelések és előrejelzések több, mint 4000 repülőtéren (METAR és TAF jelentéseket).

A térképen piros és sárga pontok jelzik az elérhető meteorológiai állomásokat.

Mozgassa az egeret a pont fölött, hogy megjelenjen az állomás neve.

Azután kattintson az időjárási megfigyelések és előrejelzések megtekintéséhez.

A térkép megváltoztatása: kattintson a fekete keresztel jelölt zöld gombra ráközelítéshez, a vonallal jelölt zöld gombra távolításhoz, vagy a zöld nyilakra a szomszédos térképek eléréséhez.


METAR-TAF: